Time;durP1;ratioP1;P1;durP2;ratioP2;P2;SDS_P1;SDS_P2;PMS_P1;PMS_P2;Temp;Humidity;BMP_temperature;BMP_pressure;BME280_temperature;BME280_humidity;BME280_pressure;Samples;Min_cycle;Max_cycle;Signal;HPM_P1;HPM_P2
2023/01/22 00:00:58;;;;;;;27.98;14.50;;;;;;;4.75;100.00;92889.84;5048245;28;20079;-72
2023/01/22 00:03:25;;;;;;;21.55;12.05;;;;;;;4.77;100.00;92893.00;5048623;28;20094;-72
2023/01/22 00:05:52;;;;;;;14.68;9.13;;;;;;;4.81;100.00;92892.47;5048340;28;20049;-72
2023/01/22 00:08:19;;;;;;;26.55;16.52;;;;;;;4.72;100.00;92885.91;5049771;28;20401;-72
2023/01/22 00:10:49;;;;;;;20.50;12.27;;;;;;;4.76;100.00;92897.31;5048080;28;20159;-71
2023/01/22 00:13:16;;;;;;;17.98;11.10;;;;;;;4.78;100.00;92897.13;5048416;28;20047;-72
2023/01/22 00:15:43;;;;;;;15.30;10.02;;;;;;;4.80;100.00;92895.97;5048323;28;20444;-72
2023/01/22 00:18:11;;;;;;;15.82;9.52;;;;;;;4.76;100.00;92892.22;5048325;28;20102;-72
2023/01/22 00:20:38;;;;;;;29.65;16.00;;;;;;;4.90;100.00;92894.88;5048144;28;20493;-72
2023/01/22 00:23:05;;;;;;;25.45;14.38;;;;;;;4.92;100.00;92900.56;5048028;28;20045;-72
2023/01/22 00:25:31;;;;;;;50.53;25.42;;;;;;;4.92;100.00;92903.13;5047995;28;20052;-72
2023/01/22 00:27:58;;;;;;;23.92;13.93;;;;;;;4.96;100.00;92901.81;5048088;28;20045;-72
2023/01/22 00:30:25;;;;;;;23.48;13.40;;;;;;;4.97;100.00;92907.66;5065976;28;20048;-72
2023/01/22 00:32:51;;;;;;;23.45;13.90;;;;;;;4.96;100.00;92909.44;5067821;28;20048;-72
2023/01/22 00:35:19;;;;;;;27.95;15.23;;;;;;;4.89;100.00;92911.13;5068071;28;20467;-72
2023/01/22 00:37:47;;;;;;;17.70;11.25;;;;;;;4.81;100.00;92906.91;5068086;28;20117;-72
2023/01/22 00:40:14;;;;;;;20.65;11.38;;;;;;;4.72;100.00;92918.97;5068368;28;20037;-72
2023/01/22 00:42:41;;;;;;;21.58;11.70;;;;;;;4.48;100.00;92912.47;5067832;28;20086;-72
2023/01/22 00:45:09;;;;;;;25.58;12.23;;;;;;;4.37;100.00;92916.28;5068136;28;20098;-72
2023/01/22 00:47:36;;;;;;;20.88;12.30;;;;;;;4.42;100.00;92924.16;5067918;28;20048;-72
2023/01/22 00:50:02;;;;;;;22.05;12.40;;;;;;;4.34;100.00;92896.28;5068019;28;20044;-72
2023/01/22 00:52:31;;;;;;;26.95;15.68;;;;;;;4.35;100.00;92916.44;5068018;28;20102;-72
2023/01/22 00:54:57;;;;;;;25.20;14.45;;;;;;;4.22;100.00;92913.75;5068390;28;20094;-72
2023/01/22 00:57:24;;;;;;;46.55;20.02;;;;;;;4.21;100.00;92930.75;5071393;28;20409;-72
2023/01/22 00:59:52;;;;;;;47.90;22.85;;;;;;;4.18;100.00;92912.53;5071122;28;20102;-72
2023/01/22 01:02:18;;;;;;;62.88;28.38;;;;;;;4.28;100.00;92928.31;5071268;28;20128;-72
2023/01/22 01:04:45;;;;;;;49.13;22.20;;;;;;;4.30;100.00;92928.13;5071152;28;20044;-72
2023/01/22 01:07:12;;;;;;;48.97;24.63;;;;;;;4.34;100.00;92935.22;5071434;28;20040;-72
2023/01/22 01:09:40;;;;;;;31.65;17.00;;;;;;;4.43;100.00;92940.22;5071286;28;20484;-72
2023/01/22 01:12:08;;;;;;;39.67;20.20;;;;;;;4.48;100.00;92950.63;5071500;28;20052;-72
2023/01/22 01:14:35;;;;;;;36.80;18.10;;;;;;;4.49;100.00;92947.13;5071330;28;20139;-72
2023/01/22 01:17:01;;;;;;;38.00;19.33;;;;;;;4.52;100.00;92947.56;5071033;28;20049;-72
2023/01/22 01:19:28;;;;;;;34.20;18.35;;;;;;;4.62;100.00;92954.91;5071445;28;20362;-72
2023/01/22 01:21:55;;;;;;;35.15;21.48;;;;;;;4.63;100.00;92955.69;5070900;28;20504;-72
2023/01/22 01:24:22;;;;;;;35.80;19.30;;;;;;;4.67;100.00;92957.69;5071065;28;20052;-70
2023/01/22 01:26:50;;;;;;;37.65;20.33;;;;;;;4.73;100.00;92970.66;5070743;28;20044;-70
2023/01/22 01:29:17;;;;;;;37.92;23.20;;;;;;;4.74;100.00;92967.94;5070657;28;20040;-73
2023/01/22 01:31:44;;;;;;;36.42;22.85;;;;;;;4.78;100.00;92970.91;5070880;28;20559;-72
2023/01/22 01:34:12;;;;;;;42.85;24.75;;;;;;;4.70;100.00;92950.66;5070777;28;20056;-72
2023/01/22 01:36:39;;;;;;;26.63;15.90;;;;;;;4.77;100.00;92961.72;5071116;28;20076;-73
2023/01/22 01:39:05;;;;;;;21.63;13.75;;;;;;;4.77;100.00;92964.25;5070787;28;20045;-73
2023/01/22 01:41:32;;;;;;;22.33;14.93;;;;;;;4.80;100.00;92971.53;5070439;28;20041;-72
2023/01/22 01:44:13;;;;;;;50.70;31.52;;;;;;;4.84;100.00;92975.28;5070791;28;20052;-71
2023/01/22 01:46:46;;;;;;;30.33;19.88;;;;;;;4.89;100.00;92979.84;5070741;28;20044;-70
2023/01/22 01:49:27;;;;;;;24.77;15.32;;;;;;;4.85;100.00;92981.94;5070814;28;20040;-72
2023/01/22 01:51:58;;;;;;;26.90;18.80;;;;;;;4.75;100.00;92958.53;5070658;28;20652;-72
2023/01/22 01:54:25;;;;;;;21.73;14.95;;;;;;;4.86;100.00;92970.03;5070091;28;20056;-73
2023/01/22 01:56:57;;;;;;;18.92;12.57;;;;;;;4.82;100.00;92961.97;5070082;28;20044;-71
2023/01/22 01:59:25;;;;;;;14.65;10.18;;;;;;;4.63;100.00;92951.38;5070484;28;20074;-72
2023/01/22 02:01:54;;;;;;;12.10;8.77;;;;;;;4.82;100.00;92970.38;5070171;28;20045;-71
2023/01/22 02:04:22;;;;;;;14.25;10.02;;;;;;;4.80;100.00;92959.59;5070340;28;20040;-72
2023/01/22 02:06:48;;;;;;;13.43;9.75;;;;;;;4.80;100.00;92961.34;5069062;28;20117;-71
2023/01/22 02:09:15;;;;;;;14.07;8.98;;;;;;;4.80;100.00;92968.97;5070474;28;20125;-71
2023/01/22 02:11:42;;;;;;;13.40;8.38;;;;;;;4.77;100.00;92967.56;5070054;28;20048;-71
2023/01/22 02:14:14;;;;;;;15.20;12.52;;;;;;;4.78;100.00;92965.84;5069947;28;20059;-71
2023/01/22 02:16:42;;;;;;;16.08;11.15;;;;;;;4.75;100.00;92961.09;5070059;28;20094;-71
2023/01/22 02:19:09;;;;;;;15.45;12.80;;;;;;;4.70;100.00;92963.38;5070008;28;20121;-71
2023/01/22 02:21:39;;;;;;;13.98;9.98;;;;;;;4.61;100.00;92963.50;5069691;28;20041;-72
2023/01/22 02:24:08;;;;;;;16.90;12.50;;;;;;;4.53;100.00;92948.31;5069842;28;20090;-72
2023/01/22 02:26:35;;;;;;;24.92;17.80;;;;;;;4.54;100.00;92960.88;5069918;28;20409;-71
2023/01/22 02:29:02;;;;;;;27.67;21.38;;;;;;;4.48;100.00;92974.31;5069788;28;20111;-71
2023/01/22 02:31:29;;;;;;;29.38;23.95;;;;;;;4.47;100.00;92979.56;5069606;28;20128;-71
2023/01/22 02:33:56;;;;;;;29.92;22.92;;;;;;;4.43;100.00;92976.59;5069411;28;20056;-71
2023/01/22 02:36:23;;;;;;;32.28;22.83;;;;;;;4.32;100.00;92962.59;5069668;28;20101;-71
2023/01/22 02:38:51;;;;;;;43.38;30.63;;;;;;;4.36;100.00;92979.03;5069572;28;20102;-71
2023/01/22 02:41:18;;;;;;;46.28;29.35;;;;;;;4.26;100.00;92973.47;5069577;28;20386;-71
2023/01/22 02:43:44;;;;;;;37.38;23.65;;;;;;;4.19;100.00;92968.28;5069460;28;20051;-70
2023/01/22 02:46:11;;;;;;;28.75;20.23;;;;;;;4.26;100.00;92981.88;5060479;28;20386;-71
2023/01/22 02:48:38;;;;;;;25.25;18.90;;;;;;;4.26;100.00;92981.88;5049268;28;20098;-71
2023/01/22 02:51:05;;;;;;;24.42;17.27;;;;;;;4.26;100.00;92979.31;5049054;28;20045;-71
2023/01/22 02:53:32;;;;;;;17.55;12.65;;;;;;;4.26;100.00;92981.09;5048870;28;20099;-71
2023/01/22 02:56:00;;;;;;;19.00;13.30;;;;;;;4.22;100.00;92988.25;5049291;28;20044;-71
2023/01/22 02:58:27;;;;;;;23.52;16.38;;;;;;;4.16;100.00;92990.72;5049057;28;20119;-72
2023/01/22 03:00:54;;;;;;;22.70;14.38;;;;;;;4.16;100.00;92985.66;5048864;28;20049;-72
2023/01/22 03:03:21;;;;;;;14.18;9.70;;;;;;;4.00;100.00;92972.16;5049331;28;20102;-71
2023/01/22 03:05:48;;;;;;;11.25;7.80;;;;;;;4.05;100.00;92982.56;5049530;28;20103;-70
2023/01/22 03:08:15;;;;;;;14.88;9.98;;;;;;;3.98;100.00;92981.72;5067936;28;20067;-70
2023/01/22 03:10:42;;;;;;;18.83;12.07;;;;;;;3.94;100.00;92981.25;5069664;28;20467;-70
2023/01/22 03:21:24;;;;;;;14.40;9.57;;;;;;;3.82;100.00;92964.84;5062157;28;20075;-71
2023/01/22 03:23:52;;;;;;;17.10;10.73;;;;;;;3.77;100.00;92964.59;5062767;28;20449;-71
2023/01/22 03:26:20;;;;;;;13.90;9.77;;;;;;;3.76;100.00;92973.16;5068981;28;20094;-71
2023/01/22 03:28:48;;;;;;;13.93;9.05;;;;;;;3.72;100.00;92971.00;5068975;28;20036;-71
2023/01/22 03:31:16;;;;;;;11.35;7.07;;;;;;;3.69;100.00;92975.59;5069045;28;20489;-71
2023/01/22 03:33:43;;;;;;;9.20;6.70;;;;;;;3.65;100.00;92977.72;5068910;28;20094;-71
2023/01/22 03:36:12;;;;;;;12.25;7.38;;;;;;;3.59;100.00;92969.03;5068546;28;20101;-71
2023/01/22 03:38:38;;;;;;;12.52;7.57;;;;;;;3.63;100.00;92971.22;5068379;28;20070;-71
2023/01/22 03:41:07;;;;;;;12.73;7.70;;;;;;;3.61;100.00;92971.38;5069307;28;20044;-71
2023/01/22 03:43:35;;;;;;;10.20;6.68;;;;;;;3.60;100.00;92973.16;5068809;28;20475;-70
2023/01/22 03:46:05;;;;;;;11.18;6.25;;;;;;;3.60;100.00;92980.78;5069206;28;20397;-71
2023/01/22 03:48:32;;;;;;;7.70;5.45;;;;;;;3.60;100.00;92975.69;5042899;28;20040;-71
2023/01/22 03:51:04;;;;;;;9.30;5.45;;;;;;;3.61;100.00;92991.72;5068649;28;20098;-71
2023/01/22 03:53:31;;;;;;;10.02;6.38;;;;;;;3.59;100.00;92978.41;5068962;28;20045;-71
2023/01/22 03:55:59;;;;;;;12.68;6.78;;;;;;;3.59;100.00;92983.47;5068243;28;20496;-71
2023/01/22 03:58:26;;;;;;;8.93;6.13;;;;;;;3.56;100.00;92987.16;5068836;28;20060;-71
2023/01/22 04:00:56;;;;;;;9.95;6.00;;;;;;;3.64;100.00;92993.13;5068721;28;20493;-71
2023/01/22 04:03:24;;;;;;;9.35;5.78;;;;;;;3.64;100.00;92998.19;5068807;28;20519;-71
2023/01/22 04:05:51;;;;;;;9.88;5.47;;;;;;;3.65;100.00;92992.19;5068661;28;20082;-71
2023/01/22 04:08:18;;;;;;;8.25;5.28;;;;;;;3.65;100.00;93004.88;5055372;28;20099;-71
2023/01/22 04:10:45;;;;;;;8.27;5.20;;;;;;;3.61;100.00;92994.25;5063698;28;20093;-71
2023/01/22 04:13:11;;;;;;;7.47;4.55;;;;;;;3.62;100.00;92998.38;5068001;28;20044;-71
2023/01/22 04:15:38;;;;;;;69.53;39.53;;;;;;;3.57;100.00;92998.88;5068031;28;20173;-71
2023/01/22 04:18:05;;;;;;;17.10;10.95;;;;;;;3.53;100.00;92994.31;5068799;28;20451;-71
2023/01/22 04:20:33;;;;;;;22.90;14.80;;;;;;;3.58;100.00;93015.72;5068096;28;20041;-71
2023/01/22 04:23:00;;;;;;;16.35;9.90;;;;;;;3.56;100.00;93024.47;5068920;28;20122;-71
2023/01/22 04:25:26;;;;;;;11.43;6.80;;;;;;;3.47;100.00;93005.94;5068511;28;20040;-71
2023/01/22 04:27:53;;;;;;;11.15;7.07;;;;;;;3.50;100.00;93020.06;5068252;28;20094;-70
2023/01/22 04:30:20;;;;;;;21.92;16.05;;;;;;;3.37;100.00;93018.88;5069191;28;20554;-71
2023/01/22 04:32:47;;;;;;;36.47;26.02;;;;;;;3.28;100.00;93030.84;5072546;28;20040;-71
2023/01/22 04:35:13;;;;;;;29.42;20.95;;;;;;;3.23;100.00;93028.03;5072346;28;20484;-71
2023/01/22 04:37:41;;;;;;;23.98;16.35;;;;;;;3.18;100.00;93033.63;5072093;28;20056;-71
2023/01/22 04:40:10;;;;;;;34.83;22.45;;;;;;;3.15;100.00;93043.31;5071746;28;20040;-71
2023/01/22 04:42:37;;;;;;;25.13;17.38;;;;;;;3.14;100.00;93054.44;5072484;28;20109;-70
2023/01/22 04:45:04;;;;;;;23.13;14.95;;;;;;;3.12;100.00;93053.78;5072053;28;20102;-71
2023/01/22 04:47:31;;;;;;;23.40;15.95;;;;;;;3.11;100.00;93062.38;5055733;28;20037;-71
2023/01/22 04:49:57;;;;;;;15.07;9.60;;;;;;;3.10;100.00;93060.78;5071910;28;20049;-71
2023/01/22 04:52:24;;;;;;;12.25;8.70;;;;;;;3.02;100.00;93071.78;5072047;28;20036;-71
2023/01/22 04:54:52;;;;;;;13.80;10.18;;;;;;;2.97;100.00;93074.81;5071810;28;20067;-71
2023/01/22 04:57:19;;;;;;;15.43;11.05;;;;;;;3.05;100.00;93073.97;5061646;28;20068;-72
2023/01/22 04:59:46;;;;;;;18.50;12.68;;;;;;;3.10;100.00;93079.34;5067116;28;20086;-71
2023/01/22 05:02:12;;;;;;;21.13;13.90;;;;;;;3.10;100.00;93086.16;5050979;28;20041;-71
2023/01/22 05:04:39;;;;;;;18.02;13.77;;;;;;;3.07;100.00;93082.22;5049198;28;20456;-71
2023/01/22 05:07:06;;;;;;;17.70;13.48;;;;;;;3.08;100.00;93096.47;5050800;28;20095;-71
2023/01/22 05:09:32;;;;;;;19.40;14.10;;;;;;;3.09;100.00;93094.75;5050674;28;20091;-71
2023/01/22 05:12:01;;;;;;;19.02;13.27;;;;;;;3.04;100.00;93096.03;5049643;28;20044;-71
2023/01/22 05:14:27;;;;;;;17.33;12.55;;;;;;;2.95;100.00;93091.94;5049283;28;20047;-71
2023/01/22 05:16:54;;;;;;;15.05;9.70;;;;;;;2.99;100.00;93098.28;5050331;28;20856;-71
2023/01/22 05:19:21;;;;;;;41.40;23.35;;;;;;;2.90;100.00;93102.59;5049011;28;20382;-71
2023/01/22 05:21:47;;;;;;;36.20;22.35;;;;;;;2.86;100.00;93116.56;5048899;28;20045;-71
2023/01/22 05:24:14;;;;;;;22.98;15.55;;;;;;;2.83;100.00;93121.16;5050187;28;20045;-71
2023/01/22 05:26:41;;;;;;;27.52;17.88;;;;;;;2.72;100.00;93128.16;5048909;28;20048;-71
2023/01/22 05:29:09;;;;;;;31.45;21.55;;;;;;;2.64;100.00;93113.00;5052025;28;20095;-71
2023/01/22 05:31:36;;;;;;;30.58;21.55;;;;;;;2.73;100.00;93136.59;5050569;28;20497;-71
2023/01/22 05:34:03;;;;;;;27.20;19.00;;;;;;;2.72;100.00;93138.31;5049598;28;20129;-71
2023/01/22 05:36:30;;;;;;;25.25;18.70;;;;;;;2.73;100.00;93144.97;5049779;28;20045;-71
2023/01/22 05:38:57;;;;;;;26.77;20.02;;;;;;;2.78;100.00;93139.44;5046450;28;20099;-70
2023/01/22 05:41:24;;;;;;;26.20;19.63;;;;;;;2.45;100.00;93144.56;5048373;28;20041;-71
2023/01/22 05:43:51;;;;;;;33.17;23.45;;;;;;;2.46;100.00;93143.63;5050528;28;21265;-71
2023/01/22 05:46:19;;;;;;;26.23;19.92;;;;;;;2.60;100.00;93153.06;5050628;28;20049;-71
2023/01/22 05:48:46;;;;;;;28.38;18.80;;;;;;;2.65;100.00;93153.38;5048255;28;20048;-71
2023/01/22 05:51:12;;;;;;;33.47;24.05;;;;;;;2.70;100.00;93157.19;5052089;28;20451;-71
2023/01/22 05:53:39;;;;;;;58.92;37.42;;;;;;;2.71;100.00;93154.50;5057761;28;20045;-71
2023/01/22 05:56:06;;;;;;;43.55;28.50;;;;;;;2.85;100.00;93153.03;5048951;28;20106;-71
2023/01/22 05:58:33;;;;;;;43.53;28.77;;;;;;;2.95;100.00;93160.44;5048414;28;20057;-71
2023/01/22 06:01:00;;;;;;;28.90;20.83;;;;;;;2.96;100.00;93163.78;5050107;28;20131;-71
2023/01/22 06:03:28;;;;;;;24.15;18.00;;;;;;;3.02;100.00;93168.97;5049961;28;20048;-71
2023/01/22 06:05:58;;;;;;;28.48;18.48;;;;;;;3.02;100.00;93168.19;5049837;28;20501;-70
2023/01/22 06:08:25;;;;;;;22.85;15.07;;;;;;;2.97;100.00;93180.59;5050223;28;20091;-70
2023/01/22 06:10:59;;;;;;;23.75;16.50;;;;;;;2.95;100.00;93188.34;5049565;28;20774;-71
2023/01/22 06:13:27;;;;;;;24.65;16.73;;;;;;;2.96;100.00;93186.63;5059219;28;20055;-70
2023/01/22 06:15:53;;;;;;;32.10;22.30;;;;;;;2.98;100.00;93182.16;5055839;28;20052;-70
2023/01/22 06:18:20;;;;;;;37.70;24.02;;;;;;;2.96;100.00;93174.72;5070475;28;20044;-70
2023/01/22 06:20:49;;;;;;;28.40;20.10;;;;;;;2.98;100.00;93177.88;5070152;28;20049;-71
2023/01/22 06:23:16;;;;;;;44.58;26.55;;;;;;;2.98;100.00;93174.56;5070045;28;20060;-70
2023/01/22 06:25:43;;;;;;;30.88;21.67;;;;;;;3.14;100.00;93194.03;5069941;28;20040;-70
2023/01/22 06:28:10;;;;;;;38.92;26.67;;;;;;;3.20;100.00;93190.81;5070052;28;20117;-70
2023/01/22 06:30:37;;;;;;;50.17;32.63;;;;;;;3.17;100.00;93189.41;5069964;28;20045;-71
2023/01/22 06:33:04;;;;;;;57.38;38.92;;;;;;;3.22;100.00;93193.97;5069868;28;20097;-71
2023/01/22 06:35:30;;;;;;;75.35;54.03;;;;;;;3.18;100.00;93190.97;5069675;28;20048;-71
2023/01/22 06:37:58;;;;;;;62.65;47.28;;;;;;;3.21;100.00;93195.72;5069526;28;20048;-71
2023/01/22 06:40:25;;;;;;;60.65;45.35;;;;;;;3.29;100.00;93210.13;5069531;28;20045;-71
2023/01/22 06:42:52;;;;;;;60.72;44.83;;;;;;;3.38;100.00;93217.72;5060755;28;20103;-71
2023/01/22 06:45:19;;;;;;;53.78;39.92;;;;;;;3.47;100.00;93216.72;5070051;28;20045;-70
2023/01/22 06:47:46;;;;;;;41.70;29.40;;;;;;;3.49;100.00;93222.44;5070182;28;20044;-71
2023/01/22 06:50:13;;;;;;;32.00;23.33;;;;;;;3.65;100.00;93223.31;5069791;28;20386;-71
2023/01/22 06:52:40;;;;;;;20.23;15.40;;;;;;;3.75;100.00;93223.88;5068998;28;20044;-71
2023/01/22 06:55:09;;;;;;;17.02;11.25;;;;;;;3.87;100.00;93226.84;5069584;28;20048;-70
2023/01/22 06:57:36;;;;;;;62.72;49.67;;;;;;;3.95;100.00;93224.28;5069217;28;20106;-70
2023/01/22 07:00:05;;;;;;;48.00;38.35;;;;;;;3.98;100.00;93228.22;5069494;28;20557;-70
2023/01/22 07:02:31;;;;;;;30.00;19.40;;;;;;;4.07;100.00;93234.81;5068856;28;20048;-70
2023/01/22 07:04:58;;;;;;;23.88;15.65;;;;;;;4.16;100.00;93224.63;5069647;28;20126;-70
2023/01/22 07:07:25;;;;;;;169.38;78.28;;;;;;;4.07;100.00;93232.28;5069122;28;20098;-70
2023/01/22 07:09:52;;;;;;;184.68;82.57;;;;;;;4.12;100.00;93230.03;5069496;28;20041;-70
2023/01/22 07:12:20;;;;;;;80.22;39.78;;;;;;;4.23;100.00;93236.50;5068979;28;20469;-70
2023/01/22 07:14:46;;;;;;;68.90;39.30;;;;;;;4.34;100.00;93244.66;5069452;28;20060;-70
2023/01/22 07:17:13;;;;;;;49.85;29.92;;;;;;;4.45;100.00;93248.56;5069002;28;20087;-70
2023/01/22 07:19:40;;;;;;;45.67;26.33;;;;;;;4.59;100.00;93242.75;5069369;28;20048;-70
2023/01/22 07:22:06;;;;;;;33.72;22.42;;;;;;;4.68;100.00;93246.00;5068794;28;20048;-70
2023/01/22 07:24:33;;;;;;;31.90;19.85;;;;;;;4.70;100.00;93245.81;5068915;28;20542;-70
2023/01/22 07:27:01;;;;;;;38.83;23.15;;;;;;;4.61;100.00;93235.72;5068937;28;20102;-70
2023/01/22 07:29:29;;;;;;;41.75;26.42;;;;;;;4.62;100.00;93226.31;5069219;28;20049;-70
2023/01/22 07:31:56;;;;;;;51.50;34.90;;;;;;;4.59;100.00;93242.75;5068969;28;20105;-70
2023/01/22 07:34:23;;;;;;;48.20;29.42;;;;;;;4.58;100.00;93233.50;5068538;28;20390;-70
2023/01/22 07:36:50;;;;;;;51.03;29.48;;;;;;;4.77;100.00;93247.50;5068478;28;20045;-70
2023/01/22 07:39:16;;;;;;;44.83;27.17;;;;;;;4.82;100.00;93241.91;5069202;28;20382;-70
2023/01/22 07:41:43;;;;;;;44.88;27.08;;;;;;;4.85;100.00;93243.31;5068866;28;20436;-70
2023/01/22 07:44:10;;;;;;;38.97;26.05;;;;;;;4.80;100.00;93231.91;5059371;28;20048;-70
2023/01/22 07:46:39;;;;;;;30.02;18.02;;;;;;;4.78;100.00;93251.63;5068333;28;20052;-70
2023/01/22 07:49:06;;;;;;;40.25;22.30;;;;;;;4.94;100.00;93247.34;5069055;28;20045;-71
2023/01/22 07:51:33;;;;;;;42.75;24.33;;;;;;;5.09;100.00;93247.34;5068774;28;20040;-70
2023/01/22 07:53:59;;;;;;;37.85;22.38;;;;;;;5.21;100.00;93245.97;5068573;28;20489;-70
2023/01/22 07:56:26;;;;;;;44.13;21.65;;;;;;;5.31;100.00;93247.47;5068661;28;20094;-70
2023/01/22 07:58:53;;;;;;;48.15;22.98;;;;;;;5.46;100.00;93247.47;5068577;28;20114;-71
2023/01/22 08:01:19;;;;;;;48.25;24.90;;;;;;;5.57;100.00;93256.41;5068627;28;20040;-70
2023/01/22 08:03:48;;;;;;;55.08;30.40;;;;;;;5.59;100.00;93249.38;5068545;28;20090;-70
2023/01/22 08:06:19;;;;;;;57.13;26.77;;;;;;;5.62;100.00;93254.13;5071112;28;20045;-70
2023/01/22 08:08:46;;;;;;;84.82;36.60;;;;;;;5.66;100.00;93257.09;5072878;28;20123;-70
2023/01/22 08:11:13;;;;;;;69.28;34.40;;;;;;;5.68;100.00;93258.50;5072877;28;20098;-70
2023/01/22 08:13:39;;;;;;;52.03;26.90;;;;;;;5.59;100.00;93262.91;5059944;28;20170;-70
2023/01/22 08:16:08;;;;;;;44.38;25.42;;;;;;;5.57;100.00;93267.41;5072563;28;20078;-70
2023/01/22 08:18:34;;;;;;;31.98;18.63;;;;;;;5.67;100.00;93258.69;5069125;28;20080;-71
2023/01/22 08:21:03;;;;;;;21.98;12.43;;;;;;;5.80;100.00;93268.25;5070740;28;20062;-71
2023/01/22 08:23:32;;;;;;;30.38;20.60;;;;;;;5.87;100.00;93269.09;5070864;28;20556;-70
2023/01/22 08:25:59;;;;;;;18.52;12.38;;;;;;;6.08;100.00;93268.41;5072042;28;20570;-70
2023/01/22 08:28:26;;;;;;;23.83;14.63;;;;;;;6.26;100.00;93273.06;5071911;28;20045;-71
2023/01/22 08:30:57;;;;;;;22.45;13.77;;;;;;;6.47;100.00;93278.41;5072207;28;20509;-71
2023/01/22 08:33:24;;;;;;;30.98;16.35;;;;;;;6.59;100.00;93284.59;5072374;28;20053;-71
2023/01/22 08:35:50;;;;;;;33.08;16.90;;;;;;;6.70;100.00;93288.41;5072245;28;20113;-70
2023/01/22 08:38:18;;;;;;;34.53;17.60;;;;;;;6.81;100.00;93277.69;5071822;28;20085;-71
2023/01/22 08:40:48;;;;;;;35.35;18.75;;;;;;;7.03;100.00;93282.75;5072396;28;20048;-70
2023/01/22 08:43:15;;;;;;;34.50;18.45;;;;;;;7.19;100.00;93265.59;5065176;28;20078;-71
2023/01/22 08:45:42;;;;;;;33.33;17.17;;;;;;;7.43;100.00;93272.00;5070971;28;20095;-71
2023/01/22 08:48:08;;;;;;;33.83;14.15;;;;;;;7.65;100.00;93273.69;5072095;28;20090;-71
2023/01/22 08:50:35;;;;;;;32.95;15.82;;;;;;;7.76;100.00;93270.59;5071834;28;20098;-71
2023/01/22 08:53:02;;;;;;;39.35;15.90;;;;;;;7.96;100.00;93280.13;5071615;28;20554;-71
2023/01/22 08:55:30;;;;;;;43.90;19.45;;;;;;;8.14;100.00;93282.94;5071298;28;20493;-71
2023/01/22 08:57:57;;;;;;;39.20;16.55;;;;;;;8.21;100.00;93272.72;5071589;28;20122;-71
2023/01/22 09:00:24;;;;;;;35.72;14.63;;;;;;;8.51;100.00;93282.63;5070134;28;20446;-71
2023/01/22 09:02:51;;;;;;;50.65;17.02;;;;;;;8.69;100.00;93286.41;5070315;28;20102;-71
2023/01/22 09:05:18;;;;;;;44.50;17.55;;;;;;;8.81;100.00;93289.19;5070184;28;20548;-71
2023/01/22 09:07:44;;;;;;;42.53;14.02;;;;;;;8.90;100.00;93298.25;5070759;28;20044;-71
2023/01/22 09:10:12;;;;;;;62.50;28.15;;;;;;;8.99;100.00;93305.72;5069999;28;20645;-71
2023/01/22 09:12:40;;;;;;;26.20;10.23;;;;;;;9.00;100.00;93302.19;5070509;28;20051;-71
2023/01/22 09:15:08;;;;;;;30.08;14.38;;;;;;;9.07;100.00;93296.06;5069940;28;20538;-70
2023/01/22 09:17:35;;;;;;;27.55;9.75;;;;;;;9.20;100.00;93302.16;5070159;28;20098;-70
2023/01/22 09:20:01;;;;;;;24.38;12.35;;;;;;;9.25;100.00;93299.81;5043770;28;20048;-70
2023/01/22 09:22:28;;;;;;;28.75;14.20;;;;;;;9.32;100.00;93295.47;5069580;28;20500;-71
2023/01/22 09:24:55;;;;;;;19.45;11.40;;;;;;;9.39;100.00;93302.38;5070395;28;20101;-70
2023/01/22 09:27:22;;;;;;;24.83;10.07;;;;;;;9.43;100.00;93281.25;5069879;28;20044;-70
2023/01/22 09:29:50;;;;;;;26.55;12.18;;;;;;;9.70;100.00;93306.84;5070685;28;20048;-70
2023/01/22 09:32:16;;;;;;;18.75;9.48;;;;;;;9.87;100.00;93304.59;5070162;28;20098;-70
2023/01/22 09:34:43;;;;;;;16.27;10.77;;;;;;;10.05;100.00;93312.66;5065199;28;20045;-70
2023/01/22 09:37:12;;;;;;;16.80;7.72;;;;;;;10.06;100.00;93297.03;5070202;28;20538;-70
2023/01/22 09:39:38;;;;;;;10.18;7.10;;;;;;;10.25;100.00;93323.63;5070141;28;20044;-70
2023/01/22 09:42:09;;;;;;;11.43;5.80;;;;;;;10.36;100.00;93317.03;5067253;28;20102;-70
2023/01/22 09:44:39;;;;;;;8.20;4.45;;;;;;;10.46;100.00;93321.00;5051327;28;20096;-70
2023/01/22 09:47:13;;;;;;;16.80;5.78;;;;;;;10.61;100.00;93323.28;5069883;28;20090;-70
2023/01/22 09:49:49;;;;;;;8.95;4.40;;;;;;;10.65;100.00;93325.22;5066899;28;20106;-70
2023/01/22 09:52:16;;;;;;;9.18;6.07;;;;;;;10.54;100.00;93295.03;5061043;28;20049;-70
2023/01/22 09:54:43;;;;;;;13.35;5.63;;;;;;;10.76;100.00;93328.13;5069311;28;20044;-70
2023/01/22 09:57:14;;;;;;;18.38;6.72;;;;;;;10.64;100.00;93304.88;5069906;28;20388;-70
2023/01/22 09:59:46;;;;;;;12.10;6.05;;;;;;;10.86;100.00;93322.50;5030769;28;1134018;-70
2023/01/22 10:02:23;;;;;;;12.07;6.47;;;;;;;10.87;100.00;93319.75;5070600;28;20048;-70
2023/01/22 10:04:52;;;;;;;14.98;6.43;;;;;;;11.00;100.00;93318.06;5046967;28;20465;-70
2023/01/22 10:07:23;;;;;;;11.40;6.28;;;;;;;11.12;100.00;93316.41;5070059;28;20040;-70
2023/01/22 10:09:54;;;;;;;15.38;6.05;;;;;;;11.00;100.00;93308.59;5059800;28;20045;-70
2023/01/22 10:12:20;;;;;;;10.63;4.97;;;;;;;10.58;100.00;93321.09;5070253;28;20101;-70
2023/01/22 10:14:49;;;;;;;10.82;5.15;;;;;;;10.42;100.00;93312.88;5070430;28;20501;-70
2023/01/22 10:17:21;;;;;;;8.23;4.10;;;;;;;10.15;100.00;93321.47;5070254;28;20121;-70
2023/01/22 10:19:53;;;;;;;10.55;5.05;;;;;;;9.92;100.00;93309.13;5070576;28;20048;-70
2023/01/22 10:22:22;;;;;;;9.20;4.82;;;;;;;9.79;100.00;93312.53;5070352;28;20378;-70
2023/01/22 10:24:48;;;;;;;11.35;4.80;;;;;;;9.17;100.00;93316.16;5070331;28;20127;-70
2023/01/22 10:27:17;;;;;;;7.03;4.47;;;;;;;9.07;100.00;93311.44;5069596;28;20398;-70
2023/01/22 10:29:46;;;;;;;13.35;5.72;;;;;;;8.97;100.00;93305.16;5070020;28;20052;-70
2023/01/22 10:32:20;;;;;;;17.38;8.10;;;;;;;8.84;100.00;93308.50;5070158;28;20048;-70
2023/01/22 10:35:00;;;;;;;26.77;9.80;;;;;;;8.69;100.00;93314.56;5070117;28;20101;-70
2023/01/22 10:37:26;;;;;;;29.17;10.20;;;;;;;8.42;100.00;93305.03;5070167;28;20455;-69
2023/01/22 10:39:57;;;;;;;31.90;11.25;;;;;;;8.36;100.00;93307.59;5066535;28;20499;-69
2023/01/22 10:42:26;;;;;;;28.10;9.40;;;;;;;8.40;100.00;93311.34;5054744;28;20041;-69
2023/01/22 10:44:56;;;;;;;23.20;8.10;;;;;;;8.50;100.00;93293.03;5066890;28;20542;-70
2023/01/22 10:47:26;;;;;;;25.83;9.32;;;;;;;8.62;100.00;93290.72;5069941;28;20138;-69
2023/01/22 10:50:04;;;;;;;19.73;7.95;;;;;;;8.60;100.00;93280.69;5069078;28;20067;-69
2023/01/22 10:52:35;;;;;;;19.17;8.55;;;;;;;8.65;100.00;93291.13;5069302;28;20048;-69
2023/01/22 10:55:03;;;;;;;18.27;8.27;;;;;;;8.74;100.00;93298.63;5044175;28;20118;-69
2023/01/22 10:57:33;;;;;;;18.88;7.55;;;;;;;8.72;100.00;93301.38;5068811;28;20056;-69
2023/01/22 11:00:06;;;;;;;22.05;7.60;;;;;;;8.86;100.00;93298.81;5069681;28;20396;-69
2023/01/22 11:02:34;;;;;;;19.58;6.13;;;;;;;9.09;100.00;93294.09;5069681;28;20072;-70
2023/01/22 11:05:16;;;;;;;26.58;7.30;;;;;;;9.10;100.00;93287.19;5069837;28;20098;-70
2023/01/22 11:07:44;;;;;;;22.17;8.05;;;;;;;9.30;100.00;93294.09;5056215;28;20041;-70
2023/01/22 11:10:18;;;;;;;20.30;7.07;;;;;;;9.39;100.00;93279.28;5069097;28;20048;-70
2023/01/22 11:12:49;;;;;;;23.20;6.22;;;;;;;9.53;100.00;93287.75;5069544;28;20272;-70
2023/01/22 11:15:21;;;;;;;17.80;6.05;;;;;;;9.38;100.00;93301.56;5069120;28;20044;-70
2023/01/22 11:17:51;;;;;;;12.68;5.03;;;;;;;9.45;100.00;93294.66;5068987;28;20492;-70
2023/01/22 11:20:25;;;;;;;13.80;5.57;;;;;;;9.44;100.00;93293.06;5068881;28;20087;-70
2023/01/22 11:23:01;;;;;;;26.33;6.63;;;;;;;9.33;100.00;93307.31;5059104;28;20110;-70
2023/01/22 11:25:37;;;;;;;32.55;7.63;;;;;;;9.42;100.00;93302.75;5067060;28;20083;-70
2023/01/22 11:28:08;;;;;;;;;;;;;;;9.35;100.00;93314.78;5069552;28;20094;-70
2023/01/22 11:30:49;;;;;;;15.52;5.60;;;;;;;9.28;100.00;93306.31;5069046;28;20342;-70